createdAt,value
2022-08-16T00:00:52.250Z,26.17
2022-08-16T00:03:55.982Z,24.80
2022-08-16T00:06:59.303Z,25.65
2022-08-16T00:10:02.404Z,26.35
2022-08-16T00:13:10.547Z,29.88
2022-08-16T00:17:01.135Z,28.05
2022-08-16T00:19:41.200Z,31.13
2022-08-16T00:22:46.136Z,30.60
2022-08-16T00:26:36.516Z,28.27
2022-08-16T00:29:16.180Z,29.35
2022-08-16T00:32:19.357Z,26.75
2022-08-16T00:35:27.128Z,26.33
2022-08-16T00:38:40.148Z,26.13
2022-08-16T00:41:47.518Z,27.40
2022-08-16T00:44:57.052Z,25.20
2022-08-16T00:48:01.299Z,27.83
2022-08-16T00:51:29.545Z,26.70
2022-08-16T00:54:35.976Z,27.38
2022-08-16T00:57:59.162Z,24.27
2022-08-16T01:01:07.996Z,26.58
2022-08-16T01:04:29.306Z,24.02
2022-08-16T01:07:51.337Z,24.90
2022-08-16T01:10:56.114Z,26.60
2022-08-16T01:14:10.432Z,27.90
2022-08-16T01:17:19.907Z,25.38
2022-08-16T01:20:30.297Z,26.70
2022-08-16T01:23:58.489Z,26.95
2022-08-16T01:27:11.625Z,27.55
2022-08-16T01:30:26.243Z,26.60
2022-08-16T01:33:33.498Z,23.10
2022-08-16T01:36:39.516Z,26.23
2022-08-16T01:39:45.956Z,25.10
2022-08-16T01:42:50.925Z,24.10
2022-08-16T01:45:59.867Z,24.23
2022-08-16T01:49:43.555Z,26.23
2022-08-16T01:52:51.394Z,25.73
2022-08-16T01:56:24.984Z,27.27
2022-08-16T01:59:30.990Z,29.48
2022-08-16T02:02:34.507Z,31.10
2022-08-16T02:05:46.803Z,27.90
2022-08-16T02:08:55.913Z,27.67
2022-08-16T02:12:39.704Z,28.83
2022-08-16T02:15:28.436Z,29.80
2022-08-16T02:18:32.356Z,29.42
2022-08-16T02:21:36.580Z,30.15
2022-08-16T02:24:59.537Z,29.55
2022-08-16T02:28:05.667Z,27.25
2022-08-16T02:31:15.888Z,28.25
2022-08-16T02:34:21.275Z,30.70
2022-08-16T02:37:39.707Z,27.13
2022-08-16T02:40:55.030Z,28.48
2022-08-16T02:44:00.877Z,28.23
2022-08-16T02:47:04.295Z,26.50
2022-08-16T02:50:53.705Z,27.85
2022-08-16T02:53:33.688Z,28.10
2022-08-16T02:56:37.159Z,26.45
2022-08-16T02:59:42.411Z,27.80
2022-08-16T03:02:46.535Z,26.80
2022-08-16T03:06:00.207Z,26.58
2022-08-16T03:09:03.629Z,27.88
2022-08-16T03:12:08.780Z,27.98
2022-08-16T03:15:15.547Z,26.60
2022-08-16T03:18:40.110Z,26.88
2022-08-16T03:21:44.544Z,26.90
2022-08-16T03:24:47.764Z,28.98
2022-08-16T03:27:52.294Z,31.13
2022-08-16T03:30:58.178Z,30.73
2022-08-16T03:34:04.188Z,29.17
2022-08-16T03:37:07.532Z,29.85
2022-08-16T03:40:31.821Z,28.20
2022-08-16T03:43:51.070Z,28.95
2022-08-16T03:46:58.374Z,28.60
2022-08-16T03:50:25.550Z,28.98
2022-08-16T03:53:37.846Z,29.35
2022-08-16T03:56:57.234Z,28.58
2022-08-16T04:00:01.483Z,29.70
2022-08-16T04:03:18.830Z,29.38
2022-08-16T04:06:22.299Z,30.27
2022-08-16T04:09:25.675Z,30.88
2022-08-16T04:12:53.110Z,31.08
2022-08-16T04:15:53.647Z,26.48
2022-08-16T04:19:02.196Z,36.40
2022-08-16T04:22:08.497Z,36.55
2022-08-16T04:25:20.542Z,30.50
2022-08-16T04:28:51.633Z,32.63
2022-08-16T04:31:55.546Z,33.70
2022-08-16T04:35:03.582Z,32.78
2022-08-16T04:38:10.595Z,34.50
2022-08-16T04:41:32.861Z,32.10
2022-08-16T04:44:54.345Z,37.78
2022-08-16T04:48:01.706Z,33.85
2022-08-16T04:51:13.590Z,38.85
2022-08-16T04:54:22.032Z,34.75
2022-08-16T04:57:25.197Z,45.40
2022-08-16T05:00:35.157Z,37.03
2022-08-16T05:03:59.716Z,36.92
2022-08-16T05:07:09.963Z,42.88
2022-08-16T05:10:33.632Z,34.42
2022-08-16T05:13:42.134Z,37.35
2022-08-16T05:16:48.712Z,39.90
2022-08-16T05:19:58.329Z,37.58
2022-08-16T05:23:10.056Z,39.05
2022-08-16T05:26:19.982Z,36.08
2022-08-16T05:29:24.908Z,38.88
2022-08-16T05:32:51.898Z,38.88
2022-08-16T05:35:56.035Z,36.80
2022-08-16T05:39:20.633Z,34.60
2022-08-16T05:42:35.769Z,35.58
2022-08-16T05:45:39.742Z,37.08
2022-08-16T05:48:46.294Z,41.08
2022-08-16T05:52:00.014Z,40.20
2022-08-16T05:55:06.614Z,34.35
2022-08-16T05:58:31.759Z,34.55
2022-08-16T06:01:38.232Z,34.78
2022-08-16T06:04:44.930Z,39.30
2022-08-16T06:07:58.234Z,37.85
2022-08-16T06:11:13.236Z,34.88
2022-08-16T06:14:16.721Z,33.78
2022-08-16T06:17:21.583Z,35.25
2022-08-16T06:20:35.585Z,35.17
2022-08-16T06:23:54.113Z,32.05
2022-08-16T06:26:59.018Z,35.95
2022-08-16T06:30:09.791Z,36.67
2022-08-16T06:33:19.656Z,38.40
2022-08-16T06:36:26.765Z,37.53
2022-08-16T06:39:49.676Z,34.10
2022-08-16T06:43:14.747Z,36.25
2022-08-16T06:46:31.296Z,43.22
2022-08-16T06:49:35.681Z,35.28
2022-08-16T06:52:58.137Z,34.72
2022-08-16T06:56:14.035Z,32.65
2022-08-16T06:59:33.256Z,29.88
2022-08-16T07:02:58.535Z,33.83
2022-08-16T07:06:07.535Z,33.45
2022-08-16T07:09:18.815Z,32.25
2022-08-16T07:12:23.644Z,31.20
2022-08-16T07:15:49.981Z,36.40
2022-08-16T07:18:59.006Z,40.83
2022-08-16T07:22:05.118Z,29.05
2022-08-16T07:25:14.636Z,30.05
2022-08-16T07:28:24.267Z,31.08
2022-08-16T07:31:37.534Z,33.33
2022-08-16T07:34:48.163Z,32.17
2022-08-16T07:37:53.331Z,24.92
2022-08-16T07:41:10.177Z,28.38
2022-08-16T07:44:17.338Z,29.13
2022-08-16T07:47:31.912Z,27.48
2022-08-16T07:50:57.220Z,27.80
2022-08-16T07:54:02.184Z,25.73
2022-08-16T07:57:12.266Z,26.38
2022-08-16T08:00:18.745Z,28.35
2022-08-16T08:03:36.133Z,26.40
2022-08-16T08:06:45.090Z,25.42
2022-08-16T08:09:53.339Z,24.42
2022-08-16T08:12:58.504Z,21.90
2022-08-16T08:16:02.711Z,25.40
2022-08-16T08:19:12.350Z,23.10
2022-08-16T08:22:18.919Z,24.42
2022-08-16T08:25:24.903Z,24.20
2022-08-16T08:28:30.809Z,21.80
2022-08-16T08:31:42.239Z,24.63
2022-08-16T08:34:47.918Z,25.13
2022-08-16T08:37:55.346Z,22.73
2022-08-16T08:41:02.447Z,23.50
2022-08-16T08:44:28.442Z,23.73
2022-08-16T08:47:28.848Z,25.45
2022-08-16T08:50:35.316Z,18.92
2022-08-16T08:53:43.193Z,18.63
2022-08-16T08:56:46.749Z,17.95
2022-08-16T09:00:14.168Z,17.85
2022-08-16T09:03:18.486Z,20.33
2022-08-16T09:06:24.052Z,18.90
2022-08-16T09:09:33.222Z,17.52
2022-08-16T09:12:38.320Z,17.05
2022-08-16T09:15:45.772Z,21.20
2022-08-16T09:18:56.862Z,18.23
2022-08-16T09:22:04.518Z,18.85
2022-08-16T09:25:11.382Z,17.77
2022-08-16T09:29:13.322Z,16.65
2022-08-16T09:31:47.560Z,14.80
2022-08-16T09:34:58.420Z,13.10
2022-08-16T09:38:03.042Z,15.52
2022-08-16T09:41:14.792Z,13.35
2022-08-16T09:44:20.747Z,14.38
2022-08-16T09:47:56.284Z,13.00
2022-08-16T09:51:00.900Z,14.55
2022-08-16T09:54:09.488Z,13.77
2022-08-16T09:57:13.138Z,16.02
2022-08-16T10:00:42.605Z,17.08
2022-08-16T10:04:02.047Z,14.10
2022-08-16T10:07:15.655Z,17.85
2022-08-16T10:10:30.724Z,15.85
2022-08-16T10:13:34.355Z,14.52
2022-08-16T10:16:38.944Z,13.30
2022-08-16T10:19:43.290Z,13.27
2022-08-16T10:22:46.471Z,14.98
2022-08-16T10:27:17.438Z,13.98
2022-08-16T10:29:20.184Z,15.13
2022-08-16T10:32:24.114Z,16.02
2022-08-16T10:35:33.744Z,11.52
2022-08-16T10:38:40.389Z,10.98
2022-08-16T10:41:46.816Z,11.52
2022-08-16T10:44:54.583Z,12.80
2022-08-16T10:48:03.421Z,10.85
2022-08-16T10:51:07.428Z,11.43
2022-08-16T10:54:21.188Z,11.38
2022-08-16T10:57:34.986Z,13.52
2022-08-16T11:00:41.980Z,11.18
2022-08-16T11:03:45.991Z,10.82
2022-08-16T11:07:06.706Z,9.88
2022-08-16T11:10:59.127Z,12.40
2022-08-16T11:17:10.420Z,12.25
2022-08-16T11:23:40.818Z,9.60
2022-08-16T11:30:38.669Z,8.85
2022-08-16T11:33:58.113Z,10.43
2022-08-16T11:37:02.183Z,10.00
2022-08-16T11:40:09.396Z,16.50
2022-08-16T11:43:16.873Z,11.18
2022-08-16T11:46:45.209Z,10.30
2022-08-16T11:49:45.402Z,10.23
2022-08-16T11:52:48.429Z,12.82
2022-08-16T11:55:54.910Z,10.77
2022-08-16T11:58:58.112Z,10.73
2022-08-16T12:02:04.127Z,9.18
2022-08-16T12:05:27.591Z,8.48
2022-08-16T12:08:33.347Z,10.93
2022-08-16T12:11:36.569Z,8.93
2022-08-16T12:14:40.974Z,10.02
2022-08-16T12:17:45.340Z,10.20
2022-08-16T12:20:48.954Z,12.93
2022-08-16T12:23:51.941Z,11.13
2022-08-16T12:26:56.603Z,11.15
2022-08-16T12:29:59.660Z,9.30
2022-08-16T12:33:07.863Z,8.02
2022-08-16T12:36:13.023Z,9.63
2022-08-16T12:39:17.600Z,8.93
2022-08-16T12:42:24.515Z,8.60
2022-08-16T12:45:45.915Z,8.70
2022-08-16T12:49:00.174Z,9.65
2022-08-16T12:52:03.561Z,8.18
2022-08-16T12:55:08.614Z,7.90
2022-08-16T12:58:14.091Z,8.50
2022-08-16T13:01:36.712Z,9.43
2022-08-16T13:04:41.105Z,11.82
2022-08-16T13:07:51.901Z,8.30
2022-08-16T13:10:56.398Z,9.23
2022-08-16T13:13:59.449Z,8.48
2022-08-16T13:17:06.817Z,8.20
2022-08-16T13:20:17.341Z,10.68
2022-08-16T13:23:21.278Z,7.80
2022-08-16T13:26:26.593Z,9.05
2022-08-16T13:29:43.631Z,7.93
2022-08-16T13:32:47.553Z,7.50
2022-08-16T13:35:58.323Z,7.30
2022-08-16T13:39:06.240Z,7.18
2022-08-16T13:42:12.015Z,6.88
2022-08-16T13:45:17.531Z,7.60
2022-08-16T13:48:25.252Z,7.55
2022-08-16T13:51:30.945Z,8.65
2022-08-16T13:54:34.107Z,11.18
2022-08-16T13:58:35.613Z,11.07
2022-08-16T14:01:01.717Z,15.13
2022-08-16T14:04:05.374Z,8.55
2022-08-16T14:07:13.181Z,7.22
2022-08-16T14:10:23.287Z,10.90
2022-08-16T14:13:26.319Z,7.40
2022-08-16T14:16:33.567Z,9.70
2022-08-16T14:19:37.164Z,7.88
2022-08-16T14:22:52.196Z,8.93
2022-08-16T14:25:57.137Z,7.20
2022-08-16T14:29:03.639Z,11.02
2022-08-16T14:32:08.405Z,7.82
2022-08-16T14:35:16.895Z,10.38
2022-08-16T14:38:24.077Z,10.75
2022-08-16T14:41:28.087Z,6.38
2022-08-16T14:44:31.160Z,11.75
2022-08-16T14:47:37.033Z,6.40
2022-08-16T14:50:40.056Z,7.97
2022-08-16T14:53:49.825Z,6.57
2022-08-16T14:56:56.093Z,6.10
2022-08-16T15:00:05.630Z,6.40
2022-08-16T15:03:10.848Z,6.65
2022-08-16T15:06:14.593Z,5.15
2022-08-16T15:09:20.650Z,8.48
2022-08-16T15:12:31.160Z,4.68
2022-08-16T15:15:38.706Z,5.25
2022-08-16T15:18:42.528Z,5.80
2022-08-16T15:21:53.774Z,5.00
2022-08-16T15:24:59.714Z,6.43
2022-08-16T15:28:07.308Z,5.97
2022-08-16T15:31:28.147Z,5.72
2022-08-16T15:34:31.423Z,10.05
2022-08-16T15:37:42.833Z,6.43
2022-08-16T15:40:57.504Z,5.00
2022-08-16T15:44:05.509Z,6.20
2022-08-16T15:47:16.382Z,8.40
2022-08-16T15:50:21.444Z,6.70
2022-08-16T15:53:27.235Z,6.70
2022-08-16T15:56:32.204Z,5.03
2022-08-16T15:59:49.092Z,6.80
2022-08-16T16:03:03.148Z,7.78
2022-08-16T16:06:06.778Z,5.85
2022-08-16T16:09:10.620Z,6.85
2022-08-16T16:12:41.977Z,5.32
2022-08-16T16:15:43.447Z,6.28
2022-08-16T16:18:49.045Z,5.75
2022-08-16T16:21:53.932Z,5.63
2022-08-16T16:24:57.583Z,5.95
2022-08-16T16:28:02.306Z,6.85
2022-08-16T16:31:08.704Z,7.63
2022-08-16T16:34:12.260Z,9.35
2022-08-16T16:37:15.810Z,8.85
2022-08-16T16:40:23.976Z,6.03
2022-08-16T16:43:40.761Z,9.90
2022-08-16T16:46:44.686Z,5.68
2022-08-16T16:50:00.449Z,6.07
2022-08-16T16:53:04.443Z,6.65
2022-08-16T16:56:30.009Z,5.82
2022-08-16T16:59:36.774Z,6.18
2022-08-16T17:02:49.307Z,5.80
2022-08-16T17:06:00.172Z,7.32
2022-08-16T17:09:15.388Z,6.13
2022-08-16T17:12:24.909Z,6.13
2022-08-16T17:15:36.291Z,6.88
2022-08-16T17:19:14.678Z,9.70
2022-08-16T17:22:03.008Z,6.05
2022-08-16T17:25:10.716Z,5.53
2022-08-16T17:28:57.753Z,7.57
2022-08-16T17:31:40.974Z,9.77
2022-08-16T17:34:50.789Z,7.50
2022-08-16T17:37:54.844Z,6.97
2022-08-16T17:40:59.712Z,8.80
2022-08-16T17:44:03.777Z,8.35
2022-08-16T17:47:08.186Z,7.25
2022-08-16T17:50:12.339Z,9.32
2022-08-16T17:53:16.018Z,7.40
2022-08-16T17:56:20.577Z,12.60
2022-08-16T17:59:24.270Z,9.90
2022-08-16T18:03:08.309Z,14.93
2022-08-16T18:06:48.048Z,7.78
2022-08-16T18:10:33.366Z,9.38
2022-08-16T18:18:19.677Z,8.65
2022-08-16T18:21:57.092Z,7.35
2022-08-16T18:25:03.152Z,6.70
2022-08-16T18:28:06.451Z,7.28
2022-08-16T18:31:10.404Z,7.63
2022-08-16T18:34:14.699Z,7.63
2022-08-16T18:37:17.667Z,8.77
2022-08-16T18:40:21.107Z,15.93
2022-08-16T18:44:00.978Z,10.18
2022-08-16T18:46:50.857Z,10.98
2022-08-16T18:49:55.502Z,10.00
2022-08-16T18:53:02.656Z,13.38
2022-08-16T18:56:05.888Z,12.07
2022-08-16T18:59:09.145Z,9.15
2022-08-16T19:02:56.217Z,11.93
2022-08-16T19:05:41.443Z,10.77
2022-08-16T19:08:45.809Z,15.07
2022-08-16T19:11:48.837Z,11.02
2022-08-16T19:14:52.095Z,14.63
2022-08-16T19:17:55.471Z,11.57
2022-08-16T19:21:00.113Z,11.32
2022-08-16T19:24:03.434Z,12.30
2022-08-16T19:27:10.037Z,16.75
2022-08-16T19:30:14.189Z,14.43
2022-08-16T19:33:17.160Z,16.33
2022-08-16T19:36:31.914Z,16.20
2022-08-16T19:39:38.839Z,16.58
2022-08-16T19:42:48.168Z,14.63
2022-08-16T19:45:53.551Z,14.95
2022-08-16T19:48:56.529Z,17.40
2022-08-16T19:52:12.211Z,16.10
2022-08-16T19:55:20.635Z,13.88
2022-08-16T19:58:25.485Z,17.73
2022-08-16T20:01:28.427Z,15.23
2022-08-16T20:04:31.706Z,17.85
2022-08-16T20:07:35.988Z,13.15
2022-08-16T20:10:41.322Z,13.00
2022-08-16T20:13:44.281Z,22.63
2022-08-16T20:16:47.655Z,13.05
2022-08-16T20:19:50.623Z,21.60
2022-08-16T20:22:55.018Z,14.35
2022-08-16T20:25:57.987Z,12.38
2022-08-16T20:29:01.267Z,13.02
2022-08-16T20:32:06.312Z,14.18
2022-08-16T20:35:11.965Z,13.98
2022-08-16T20:38:16.333Z,13.00
2022-08-16T20:41:20.098Z,14.15
2022-08-16T20:44:25.039Z,13.10
2022-08-16T20:47:28.455Z,15.13
2022-08-16T20:50:31.568Z,14.40
2022-08-16T20:53:36.465Z,15.73
2022-08-16T20:56:39.412Z,15.02
2022-08-16T20:59:46.772Z,16.58
2022-08-16T21:02:52.454Z,15.00
2022-08-16T21:05:58.643Z,14.57
2022-08-16T21:09:04.626Z,16.17
2022-08-16T21:12:12.982Z,15.07
2022-08-16T21:15:21.332Z,15.70
2022-08-16T21:18:24.779Z,18.02
2022-08-16T21:21:33.427Z,21.45
2022-08-16T21:24:38.992Z,21.13
2022-08-16T21:28:39.480Z,18.80
2022-08-16T21:31:05.032Z,21.10
2022-08-16T21:34:08.440Z,20.10
2022-08-16T21:37:12.214Z,23.15
2022-08-16T21:40:20.242Z,18.67
2022-08-16T21:43:24.213Z,19.50
2022-08-16T21:46:27.186Z,21.00
2022-08-16T21:49:30.158Z,27.13
2022-08-16T21:52:33.120Z,22.15
2022-08-16T21:55:43.671Z,18.73
2022-08-16T21:58:52.777Z,25.30
2022-08-16T22:01:56.392Z,20.23
2022-08-16T22:05:01.105Z,23.83
2022-08-16T22:08:05.453Z,20.35
2022-08-16T22:11:09.871Z,18.77
2022-08-16T22:14:13.494Z,17.85
2022-08-16T22:17:17.281Z,19.08
2022-08-16T22:20:21.983Z,18.38
2022-08-16T22:23:27.476Z,20.73
2022-08-16T22:26:38.574Z,19.08
2022-08-16T22:29:45.819Z,17.80
2022-08-16T22:32:50.310Z,22.08
2022-08-16T22:35:56.336Z,20.77
2022-08-16T22:39:02.988Z,20.67
2022-08-16T22:42:09.090Z,19.35
2022-08-16T22:45:13.431Z,21.13
2022-08-16T22:48:17.561Z,19.73
2022-08-16T22:51:24.035Z,18.40
2022-08-16T22:54:44.319Z,16.80
2022-08-16T22:57:51.435Z,20.60
2022-08-16T23:00:54.396Z,18.33
2022-08-16T23:03:57.496Z,17.02
2022-08-16T23:07:01.239Z,17.52
2022-08-16T23:10:06.825Z,18.92
2022-08-16T23:13:12.706Z,17.45
2022-08-16T23:16:15.948Z,20.30
2022-08-16T23:19:18.987Z,25.38
2022-08-16T23:22:24.698Z,19.00
2022-08-16T23:25:31.656Z,18.40
2022-08-16T23:28:35.942Z,22.63
2022-08-16T23:31:39.430Z,20.95
2022-08-16T23:34:45.023Z,20.65
2022-08-16T23:37:47.996Z,22.63
2022-08-16T23:40:51.219Z,22.55
2022-08-16T23:43:55.491Z,19.80
2022-08-16T23:46:58.860Z,22.63
2022-08-16T23:50:03.815Z,19.10
2022-08-16T23:53:11.328Z,18.70
2022-08-16T23:56:17.677Z,18.65
2022-08-16T23:59:22.208Z,19.38
